Time;durP1;ratioP1;P1;durP2;ratioP2;P2;SDS_P1;SDS_P2;PMS_P1;PMS_P2;Temp;Humidity;BMP_temperature;BMP_pressure;BME280_temperature;BME280_humidity;BME280_pressure;Samples;Min_cycle;Max_cycle;Signal;HPM_P1;HPM_P2
2021/06/06 00:01:11;;;;;;;33.78;20.63;;;14.60;95.10;;;;;;5081389;28;20107;-67
2021/06/06 00:03:44;;;;;;;38.38;21.42;;;14.60;95.10;;;;;;5082644;28;20021;-67
2021/06/06 00:06:20;;;;;;;37.28;21.00;;;14.60;95.10;;;;;;5075826;28;20493;-67
2021/06/06 00:08:46;;;;;;;35.33;21.55;;;14.60;95.10;;;;;;5080536;28;20016;-67
2021/06/06 00:11:18;;;;;;;32.53;20.75;;;14.50;95.10;;;;;;5083536;28;20032;-67
2021/06/06 00:13:44;;;;;;;34.63;21.20;;;14.60;95.20;;;;;;5082573;28;20032;-67
2021/06/06 00:16:15;;;;;;;32.60;21.08;;;14.50;95.20;;;;;;5083821;28;20126;-67
2021/06/06 00:18:42;;;;;;;37.17;22.05;;;14.50;95.30;;;;;;5071961;28;20028;-68
2021/06/06 00:21:08;;;;;;;37.10;21.75;;;14.50;95.30;;;;;;5076348;28;20024;-67
2021/06/06 00:23:34;;;;;;;37.15;23.65;;;14.50;95.40;;;;;;5085333;28;20062;-67
2021/06/06 00:26:01;;;;;;;42.05;24.25;;;14.50;95.40;;;;;;5088190;28;20077;-67
2021/06/06 00:28:27;;;;;;;47.92;27.13;;;14.40;95.40;;;;;;5085248;28;20382;-68
2021/06/06 00:30:53;;;;;;;45.75;27.15;;;14.40;95.50;;;;;;5083789;28;20027;-67
2021/06/06 00:33:18;;;;;;;52.80;28.05;;;14.30;95.60;;;;;;5088714;28;20031;-67
2021/06/06 00:35:44;;;;;;;44.80;26.02;;;14.30;95.70;;;;;;5080349;28;20482;-67
2021/06/06 00:38:09;;;;;;;44.22;24.80;;;14.30;95.80;;;;;;5088629;28;20111;-67
2021/06/06 00:40:37;;;;;;;53.05;26.95;;;14.30;95.80;;;;;;5078589;28;20111;-67
2021/06/06 00:43:07;;;;;;;51.15;27.00;;;14.30;95.80;;;;;;5078473;28;20080;-68
2021/06/06 00:45:34;;;;;;;47.75;27.70;;;14.30;95.80;;;;;;5083425;28;20024;-68
2021/06/06 00:48:00;;;;;;;55.53;29.83;;;14.20;95.90;;;;;;5082662;28;20028;-67
2021/06/06 00:50:34;;;;;;;68.90;32.20;;;14.20;96.00;;;;;;5089345;28;20430;-68
2021/06/06 00:53:05;;;;;;;67.00;32.17;;;14.20;96.30;;;;;;5086599;28;20044;-68
2021/06/06 00:55:33;;;;;;;56.90;30.20;;;14.20;96.10;;;;;;5091296;28;20047;-67
2021/06/06 00:58:02;;;;;;;58.55;31.25;;;14.20;96.10;;;;;;5084994;28;20028;-67
2021/06/06 01:00:42;;;;;;;68.97;34.65;;;14.10;96.10;;;;;;5089687;28;20024;-67
2021/06/06 01:03:08;;;;;;;66.97;34.28;;;14.20;96.20;;;;;;5086154;28;20476;-67
2021/06/06 01:05:54;;;;;;;69.93;35.17;;;14.10;96.20;;;;;;5087677;28;20021;-67
2021/06/06 01:08:20;;;;;;;68.70;35.08;;;14.20;96.20;;;;;;5066541;28;20046;-67
2021/06/06 01:11:00;;;;;;;64.10;34.47;;;14.20;96.20;;;;;;5086477;28;20428;-67
2021/06/06 01:13:41;;;;;;;57.92;32.05;;;14.20;96.30;;;;;;5079414;28;20024;-68
2021/06/06 01:16:18;;;;;;;55.33;30.20;;;14.20;96.30;;;;;;5061346;28;20429;-67
2021/06/06 01:18:50;;;;;;;55.10;29.63;;;14.20;96.30;;;;;;5081264;28;20043;-67
2021/06/06 01:21:41;;;;;;;54.33;30.33;;;14.30;96.30;;;;;;5084280;28;20028;-67
2021/06/06 01:24:27;;;;;;;66.65;32.15;;;14.30;96.30;;;;;;5067880;28;20020;-67
2021/06/06 01:26:59;;;;;;;69.43;33.55;;;14.30;96.30;;;;;;5082789;28;20104;-67
2021/06/06 01:29:46;;;;;;;69.35;34.15;;;14.30;96.20;;;;;;5078786;28;20024;-67
2021/06/06 01:32:38;;;;;;;67.00;34.65;;;14.30;96.20;;;;;;5077530;28;20029;-68
2021/06/06 01:35:20;;;;;;;66.50;35.70;;;14.30;96.10;;;;;;5066278;28;20527;-67
2021/06/06 01:37:51;;;;;;;70.82;34.42;;;14.20;96.10;;;;;;5081339;28;20032;-67
2021/06/06 01:40:21;;;;;;;67.72;34.58;;;14.20;96.10;;;;;;5060727;28;20043;-67
2021/06/06 01:42:53;;;;;;;52.22;28.67;;;14.20;96.20;;;;;;5091989;28;20406;-67
2021/06/06 01:45:28;;;;;;;71.15;35.22;;;14.20;96.20;;;;;;5081957;28;20037;-67
2021/06/06 01:47:59;;;;;;;77.60;35.20;;;14.20;96.20;;;;;;5081115;28;20062;-67
2021/06/06 01:50:29;;;;;;;63.78;32.78;;;14.10;96.20;;;;;;5084469;28;20410;-67
2021/06/06 01:52:57;;;;;;;61.35;31.67;;;14.10;96.30;;;;;;5090558;28;20044;-67
2021/06/06 01:55:27;;;;;;;73.10;34.35;;;14.20;96.30;;;;;;5079946;28;20044;-67
2021/06/06 01:57:55;;;;;;;59.63;31.90;;;14.10;96.20;;;;;;5087832;28;20110;-67
2021/06/06 02:00:32;;;;;;;74.72;33.35;;;14.10;96.30;;;;;;5081406;28;20033;-67
2021/06/06 02:02:58;;;;;;;70.05;32.38;;;14.10;96.20;;;;;;5084490;28;20024;-67
2021/06/06 02:05:24;;;;;;;66.13;31.48;;;14.10;96.20;;;;;;5062040;28;20027;-67
2021/06/06 02:07:52;;;;;;;64.38;31.45;;;14.10;96.30;;;;;;5085951;28;20034;-67
2021/06/06 02:10:18;;;;;;;51.67;28.95;;;14.10;96.20;;;;;;5087904;28;20024;-67
2021/06/06 02:12:48;;;;;;;52.30;28.63;;;14.10;96.20;;;;;;5066287;28;20120;-67
2021/06/06 02:15:22;;;;;;;47.65;26.58;;;14.10;96.20;;;;;;5086050;28;20050;-67
2021/06/06 02:17:51;;;;;;;48.75;26.50;;;14.10;96.20;;;;;;5088365;28;20105;-67
2021/06/06 02:20:17;;;;;;;51.53;26.80;;;14.10;96.20;;;;;;5073807;28;20050;-67
2021/06/06 02:22:43;;;;;;;47.53;25.95;;;14.00;96.20;;;;;;5086443;28;20803;-67
2021/06/06 02:25:11;;;;;;;38.55;22.77;;;14.00;96.20;;;;;;5085854;28;20108;-67
2021/06/06 02:27:42;;;;;;;48.88;26.58;;;14.00;96.20;;;;;;5086313;28;20020;-67
2021/06/06 02:30:16;;;;;;;48.53;27.50;;;14.00;96.20;;;;;;5087713;28;20044;-67
2021/06/06 02:32:53;;;;;;;42.55;25.48;;;14.00;96.20;;;;;;5088864;28;20024;-67
2021/06/06 02:35:29;;;;;;;38.80;25.50;;;14.10;96.30;;;;;;5086800;28;20417;-67
2021/06/06 02:38:08;;;;;;;40.67;23.73;;;14.00;96.20;;;;;;5078247;28;20029;-67
2021/06/06 02:40:43;;;;;;;39.65;22.05;;;14.00;96.20;;;;;;5079644;28;20031;-67
2021/06/06 02:43:16;;;;;;;46.67;23.52;;;14.00;96.20;;;;;;5078108;28;20375;-67
2021/06/06 02:45:43;;;;;;;42.40;24.83;;;14.10;96.20;;;;;;5085768;28;20474;-67
2021/06/06 02:48:17;;;;;;;38.17;23.65;;;14.10;96.20;;;;;;5084844;28;20059;-67
2021/06/06 02:50:44;;;;;;;48.97;26.90;;;14.10;96.20;;;;;;5084475;28;20051;-67
2021/06/06 02:53:29;;;;;;;49.13;26.60;;;14.10;96.20;;;;;;5080476;28;20056;-68
2021/06/06 02:56:01;;;;;;;40.95;24.05;;;14.10;96.20;;;;;;5079079;28;20024;-67
2021/06/06 02:58:43;;;;;;;45.80;25.77;;;14.10;96.10;;;;;;5080883;28;20374;-67
2021/06/06 03:01:19;;;;;;;49.03;26.60;;;14.10;96.10;;;;;;5082007;28;20055;-67
2021/06/06 03:03:46;;;;;;;51.65;26.27;;;14.10;96.10;;;;;;5085277;28;20102;-67
2021/06/06 03:06:19;;;;;;;48.88;27.67;;;14.10;96.10;;;;;;5080243;28;20052;-67
2021/06/06 03:08:45;;;;;;;52.42;27.63;;;14.10;96.00;;;;;;5081565;28;20060;-67
2021/06/06 03:11:13;;;;;;;49.70;27.83;;;14.20;96.10;;;;;;5084169;28;20048;-67
2021/06/06 03:13:45;;;;;;;51.03;28.40;;;14.20;96.10;;;;;;5080195;28;20059;-67
2021/06/06 03:16:12;;;;;;;52.73;27.33;;;14.10;96.00;;;;;;5080067;28;20032;-68
2021/06/06 03:18:41;;;;;;;48.53;27.35;;;14.10;96.00;;;;;;5083767;28;20038;-67
2021/06/06 03:21:22;;;;;;;54.47;28.48;;;14.10;96.00;;;;;;5088731;28;20055;-67
2021/06/06 03:23:55;;;;;;;50.65;29.35;;;14.20;96.00;;;;;;5072023;28;20031;-67
2021/06/06 03:26:21;;;;;;;57.25;29.75;;;14.20;96.00;;;;;;5084925;28;20029;-67
2021/06/06 03:28:47;;;;;;;56.55;31.70;;;14.20;96.00;;;;;;5088411;28;20402;-67
2021/06/06 03:31:37;;;;;;;62.08;33.75;;;14.10;96.00;;;;;;5089659;28;20028;-67
2021/06/06 03:34:04;;;;;;;65.97;34.17;;;14.20;96.00;;;;;;5083131;28;20050;-67
2021/06/06 03:36:40;;;;;;;65.35;35.58;;;14.10;95.90;;;;;;5081596;28;20516;-67
2021/06/06 03:39:08;;;;;;;68.93;34.65;;;14.20;95.90;;;;;;5086212;28;20038;-67
2021/06/06 03:41:34;;;;;;;63.15;34.50;;;14.20;96.20;;;;;;5080674;28;20434;-68
2021/06/06 03:44:00;;;;;;;67.57;35.33;;;14.20;95.90;;;;;;5079762;28;20029;-67
2021/06/06 03:46:27;;;;;;;60.25;32.58;;;14.20;95.90;;;;;;5083643;28;20051;-67
2021/06/06 03:48:53;;;;;;;62.65;32.33;;;14.20;96.20;;;;;;5084385;28;20031;-67
2021/06/06 03:51:19;;;;;;;59.33;31.60;;;14.20;95.90;;;;;;5081049;28;20562;-67
2021/06/06 03:53:45;;;;;;;54.88;29.85;;;14.20;95.90;;;;;;5083576;28;20056;-67
2021/06/06 03:56:12;;;;;;;55.85;29.52;;;14.20;95.90;;;;;;5067651;28;20032;-67
2021/06/06 03:58:39;;;;;;;50.50;28.25;;;14.20;95.90;;;;;;5079154;28;20028;-67
2021/06/06 04:01:07;;;;;;;61.47;30.23;;;14.20;95.90;;;;;;5083400;28;20032;-67
2021/06/06 04:03:32;;;;;;;53.15;29.77;;;14.20;95.90;;;;;;5080540;28;20032;-67
2021/06/06 04:05:59;;;;;;;53.38;28.55;;;14.20;95.90;;;;;;5081484;28;20028;-67
2021/06/06 04:08:25;;;;;;;54.13;31.42;;;14.20;95.90;;;;;;5083601;28;20020;-67
2021/06/06 04:10:51;;;;;;;57.50;29.98;;;14.20;95.90;;;;;;5081359;28;20035;-67
2021/06/06 04:13:18;;;;;;;61.50;31.08;;;14.20;95.90;;;;;;5083400;28;20089;-67
2021/06/06 04:15:44;;;;;;;60.65;32.80;;;14.20;96.00;;;;;;5062886;28;20021;-67
2021/06/06 04:18:09;;;;;;;60.42;32.60;;;14.10;96.00;;;;;;5085526;28;20031;-67
2021/06/06 04:20:35;;;;;;;68.07;35.65;;;14.10;96.00;;;;;;5068784;28;20016;-67
2021/06/06 04:23:00;;;;;;;72.95;36.45;;;14.20;96.00;;;;;;5081950;28;20032;-67
2021/06/06 04:25:27;;;;;;;81.68;39.47;;;14.20;96.00;;;;;;5085579;28;20016;-68
2021/06/06 04:27:52;;;;;;;83.43;40.25;;;14.20;95.90;;;;;;5082325;28;20016;-67
2021/06/06 04:30:18;;;;;;;82.47;42.45;;;14.20;95.90;;;;;;5079069;28;20070;-67
2021/06/06 04:32:43;;;;;;;86.30;42.05;;;14.20;95.90;;;;;;5070103;28;20117;-68
2021/06/06 04:35:10;;;;;;;94.03;42.83;;;14.30;96.00;;;;;;5061698;28;20098;-67
2021/06/06 04:37:35;;;;;;;104.57;45.63;;;14.30;95.90;;;;;;5079813;28;20501;-67
2021/06/06 04:40:03;;;;;;;96.60;43.42;;;14.30;95.90;;;;;;5084482;28;20028;-67
2021/06/06 04:42:29;;;;;;;94.20;43.17;;;14.30;95.90;;;;;;5059913;28;20036;-67
2021/06/06 04:44:54;;;;;;;81.80;37.78;;;14.30;95.90;;;;;;5082211;28;20039;-67
2021/06/06 04:47:20;;;;;;;66.85;33.13;;;14.30;95.90;;;;;;5068562;28;20032;-67
2021/06/06 04:49:45;;;;;;;65.30;30.67;;;14.30;95.80;;;;;;5082121;28;20056;-67
2021/06/06 04:52:13;;;;;;;69.65;31.48;;;14.20;95.90;;;;;;5080650;28;20041;-67
2021/06/06 04:54:39;;;;;;;55.67;28.27;;;14.20;95.90;;;;;;5082289;28;20051;-67
2021/06/06 04:57:06;;;;;;;72.15;32.28;;;14.20;95.90;;;;;;5079673;28;20031;-67
2021/06/06 04:59:36;;;;;;;73.00;33.55;;;14.10;95.90;;;;;;5070353;28;20033;-67
2021/06/06 05:02:09;;;;;;;78.88;33.90;;;14.10;96.00;;;;;;5071500;28;20063;-67
2021/06/06 05:04:34;;;;;;;68.88;32.90;;;14.10;96.10;;;;;;5067554;28;20035;-67
2021/06/06 05:07:00;;;;;;;68.78;34.63;;;14.10;96.10;;;;;;5069780;28;20032;-67
2021/06/06 05:09:25;;;;;;;77.45;37.03;;;14.10;96.00;;;;;;5071700;28;20043;-67
2021/06/06 05:11:51;;;;;;;76.97;36.28;;;14.10;96.00;;;;;;5068285;28;20039;-67
2021/06/06 05:14:17;;;;;;;78.57;36.45;;;14.10;96.00;;;;;;5067098;28;20123;-67
2021/06/06 05:16:43;;;;;;;79.97;34.42;;;14.10;96.00;;;;;;5073260;28;20030;-67
2021/06/06 05:19:09;;;;;;;83.78;38.10;;;14.00;96.10;;;;;;5075555;28;20075;-67
2021/06/06 05:21:35;;;;;;;79.82;37.17;;;14.00;96.10;;;;;;5075688;28;20032;-67
2021/06/06 05:24:01;;;;;;;81.95;36.58;;;14.00;96.10;;;;;;5072361;28;20039;-66
2021/06/06 05:26:26;;;;;;;78.07;35.13;;;14.10;96.20;;;;;;5077712;28;20074;-66
2021/06/06 05:28:52;;;;;;;87.28;37.88;;;14.10;96.20;;;;;;5076895;28;20731;-67
2021/06/06 05:31:19;;;;;;;81.05;36.20;;;14.10;96.20;;;;;;5078188;28;20089;-66
2021/06/06 05:33:45;;;;;;;74.15;34.55;;;14.10;96.10;;;;;;5076612;28;20020;-66
2021/06/06 05:36:11;;;;;;;76.63;34.30;;;14.10;96.10;;;;;;5063450;28;20359;-67
2021/06/06 05:38:37;;;;;;;69.38;31.50;;;14.10;96.10;;;;;;5076354;28;20036;-66
2021/06/06 05:41:04;;;;;;;74.75;33.03;;;14.10;96.10;;;;;;5073517;28;20038;-66
2021/06/06 05:43:29;;;;;;;79.45;32.17;;;14.10;96.20;;;;;;5085209;28;20474;-67
2021/06/06 05:45:56;;;;;;;58.58;28.77;;;14.10;96.20;;;;;;5088507;28;20031;-67
2021/06/06 05:48:22;;;;;;;80.43;32.55;;;14.20;96.20;;;;;;5085719;28;20423;-67
2021/06/06 05:50:53;;;;;;;77.03;31.90;;;14.10;96.20;;;;;;5084756;28;20056;-67
2021/06/06 05:53:18;;;;;;;69.00;31.08;;;14.20;96.20;;;;;;5088663;28;20083;-67
2021/06/06 05:55:44;;;;;;;70.35;31.80;;;14.20;96.50;;;;;;5089000;28;20052;-67
2021/06/06 05:58:12;;;;;;;66.78;29.13;;;14.20;96.20;;;;;;5085916;28;20027;-66
2021/06/06 06:00:40;;;;;;;62.17;28.35;;;14.20;96.20;;;;;;5087511;28;20024;-67
2021/06/06 06:03:07;;;;;;;61.25;28.45;;;14.20;96.20;;;;;;5086014;28;20112;-68
2021/06/06 06:05:34;;;;;;;63.40;29.55;;;14.30;96.20;;;;;;5086825;28;20016;-68
2021/06/06 06:08:11;;;;;;;59.63;28.42;;;14.20;96.20;;;;;;5079883;28;20093;-67
2021/06/06 06:10:36;;;;;;;53.65;25.42;;;14.20;96.30;;;;;;5081240;28;20043;-68
2021/06/06 06:13:02;;;;;;;54.72;26.83;;;14.20;96.30;;;;;;5085786;28;20032;-68
2021/06/06 06:15:27;;;;;;;54.05;26.58;;;14.20;96.30;;;;;;5083640;28;20020;-67
2021/06/06 06:17:53;;;;;;;47.58;25.67;;;14.20;96.40;;;;;;5082856;28;20024;-67
2021/06/06 06:20:20;;;;;;;56.05;27.20;;;14.30;96.40;;;;;;5086815;28;20040;-68
2021/06/06 06:22:46;;;;;;;46.88;23.58;;;14.30;96.40;;;;;;5088670;28;20024;-68
2021/06/06 06:25:13;;;;;;;49.35;25.48;;;14.30;96.40;;;;;;5085906;28;20146;-68
2021/06/06 06:27:38;;;;;;;52.60;26.92;;;14.40;96.40;;;;;;5082128;28;20020;-68
2021/06/06 06:30:09;;;;;;;52.58;25.33;;;14.50;96.30;;;;;;5073154;28;20382;-68
2021/06/06 06:32:34;;;;;;;47.38;25.38;;;14.50;96.20;;;;;;5087054;28;20028;-66
2021/06/06 06:35:00;;;;;;;45.97;24.98;;;14.60;96.20;;;;;;5082425;28;20112;-68
2021/06/06 06:37:25;;;;;;;45.10;24.75;;;14.60;96.10;;;;;;5089199;28;20556;-68
2021/06/06 06:39:52;;;;;;;45.25;25.38;;;14.60;96.00;;;;;;5085986;28;20481;-68
2021/06/06 06:42:17;;;;;;;45.38;24.55;;;14.70;96.00;;;;;;5086446;28;20032;-68
2021/06/06 06:44:43;;;;;;;37.88;22.77;;;14.80;96.00;;;;;;5086505;28;20031;-68
2021/06/06 06:47:09;;;;;;;43.15;24.85;;;14.80;95.90;;;;;;5088678;28;20024;-68
2021/06/06 06:49:34;;;;;;;38.55;22.63;;;14.90;95.80;;;;;;5086316;28;20114;-68
2021/06/06 06:52:00;;;;;;;37.50;22.00;;;15.00;95.60;;;;;;5086475;28;20047;-68
2021/06/06 06:54:25;;;;;;;40.67;23.35;;;15.00;95.50;;;;;;5086473;28;20385;-69
2021/06/06 06:56:51;;;;;;;37.90;23.00;;;15.10;95.40;;;;;;5087129;28;20078;-68
2021/06/06 06:59:16;;;;;;;37.63;21.30;;;15.10;95.40;;;;;;5072538;28;20032;-68
2021/06/06 07:01:42;;;;;;;30.10;21.55;;;15.20;95.40;;;;;;5087989;28;20055;-68
2021/06/06 07:04:08;;;;;;;33.20;20.92;;;15.30;95.10;;;;;;5071592;28;20115;-68
2021/06/06 07:06:33;;;;;;;31.50;20.55;;;15.40;95.00;;;;;;5084624;28;20367;-68
2021/06/06 07:08:59;;;;;;;28.83;18.80;;;15.40;94.90;;;;;;5085592;28;20031;-68
2021/06/06 07:11:26;;;;;;;27.05;19.15;;;15.50;94.70;;;;;;5090629;28;20089;-68
2021/06/06 07:13:51;;;;;;;27.00;19.40;;;15.70;94.60;;;;;;5089759;28;20390;-68
2021/06/06 07:16:19;;;;;;;35.42;18.58;;;15.80;94.40;;;;;;5084146;28;20020;-68
2021/06/06 07:18:45;;;;;;;24.15;17.23;;;15.90;94.20;;;;;;5072045;28;20039;-68
2021/06/06 07:21:15;;;;;;;24.67;16.98;;;16.00;94.00;;;;;;5084648;28;20024;-68
2021/06/06 07:23:42;;;;;;;20.73;16.35;;;16.00;93.80;;;;;;5079701;28;20055;-68
2021/06/06 07:26:14;;;;;;;23.35;16.20;;;16.10;93.50;;;;;;5083786;28;20066;-68
2021/06/06 07:28:40;;;;;;;22.85;16.85;;;16.10;93.50;;;;;;5082930;28;20532;-68
2021/06/06 07:31:06;;;;;;;19.10;14.95;;;16.20;93.30;;;;;;5080995;28;20032;-68
2021/06/06 07:33:37;;;;;;;17.67;14.65;;;16.30;93.20;;;;;;5083320;28;20282;-70
2021/06/06 07:36:05;;;;;;;19.40;14.90;;;16.40;93.10;;;;;;5082010;28;20502;-69
2021/06/06 07:38:31;;;;;;;21.55;15.10;;;16.50;93.00;;;;;;5062180;28;20032;-68
2021/06/06 07:40:58;;;;;;;18.92;13.68;;;16.60;92.80;;;;;;5064256;28;20494;-69
2021/06/06 07:43:24;;;;;;;19.17;14.13;;;16.70;92.50;;;;;;5081898;28;20024;-68
2021/06/06 07:45:50;;;;;;;18.85;14.20;;;16.80;92.30;;;;;;5083599;28;20054;-68
2021/06/06 07:48:16;;;;;;;17.55;14.48;;;16.80;92.10;;;;;;5085134;28;20042;-69
2021/06/06 07:50:46;;;;;;;17.92;13.75;;;16.80;91.80;;;;;;5084406;28;20019;-68
2021/06/06 07:53:14;;;;;;;20.63;13.77;;;16.90;91.80;;;;;;5084224;28;20468;-69
2021/06/06 07:55:39;;;;;;;20.50;14.38;;;16.90;91.70;;;;;;5080140;28;20024;-68
2021/06/06 07:58:05;;;;;;;16.45;13.25;;;17.00;91.20;;;;;;5085225;28;20047;-68
2021/06/06 08:00:38;;;;;;;17.77;13.70;;;17.00;91.30;;;;;;5087656;28;20044;-68
2021/06/06 08:03:04;;;;;;;19.15;13.38;;;17.00;91.10;;;;;;5066734;28;20051;-69
2021/06/06 08:05:30;;;;;;;18.98;13.98;;;16.90;91.00;;;;;;5080341;28;20020;-68
2021/06/06 08:07:56;;;;;;;16.80;13.82;;;16.90;90.90;;;;;;5082104;28;20107;-68
2021/06/06 08:10:25;;;;;;;19.45;14.52;;;16.90;91.00;;;;;;5081682;28;20034;-69
2021/06/06 08:12:51;;;;;;;18.13;13.80;;;16.90;91.00;;;;;;5084213;28;20028;-69
2021/06/06 08:15:19;;;;;;;16.90;13.65;;;16.90;91.00;;;;;;5078784;28;20445;-69
2021/06/06 08:17:44;;;;;;;15.13;13.52;;;17.00;91.00;;;;;;5082686;28;20024;-69
2021/06/06 08:20:15;;;;;;;19.67;14.93;;;17.10;90.90;;;;;;5064481;28;20100;-69
2021/06/06 08:22:40;;;;;;;17.98;15.20;;;17.10;90.70;;;;;;5082315;28;20113;-68
2021/06/06 08:25:10;;;;;;;20.52;15.85;;;17.20;90.60;;;;;;5064221;28;20039;-68
2021/06/06 08:27:37;;;;;;;15.80;13.15;;;17.20;90.60;;;;;;5050198;28;20025;-67
2021/06/06 08:30:08;;;;;;;18.20;15.10;;;17.30;90.60;;;;;;5082577;28;20241;-68
2021/06/06 08:32:34;;;;;;;19.77;15.18;;;17.40;90.50;;;;;;5082467;28;20054;-66
2021/06/06 08:34:59;;;;;;;18.23;14.13;;;17.50;90.40;;;;;;5083624;28;20048;-66
2021/06/06 08:37:25;;;;;;;17.75;14.25;;;17.60;90.70;;;;;;5085125;28;20393;-66
2021/06/06 08:39:50;;;;;;;16.55;13.98;;;17.90;90.30;;;;;;5066466;28;20465;-66
2021/06/06 08:42:23;;;;;;;15.80;13.38;;;18.10;90.00;;;;;;5081555;28;20059;-66
2021/06/06 08:44:55;;;;;;;17.50;13.40;;;18.20;89.30;;;;;;5083738;28;20024;-66
2021/06/06 08:47:27;;;;;;;15.50;12.97;;;18.30;87.80;;;;;;5080458;28;20028;-66
2021/06/06 08:49:58;;;;;;;16.13;13.25;;;18.20;87.70;;;;;;5085453;28;20270;-67
2021/06/06 08:53:02;;;;;;;13.57;11.88;;;18.10;87.50;;;;;;5081731;28;20044;-66
2021/06/06 08:55:31;;;;;;;12.75;10.85;;;18.10;87.60;;;;;;5084316;28;20077;-66
2021/06/06 08:58:43;;;;;;;16.65;11.82;;;18.10;87.40;;;;;;5084530;28;20489;-67
2021/06/06 09:01:31;;;;;;;14.73;11.52;;;18.30;87.50;;;;;;5083859;28;20024;-66
2021/06/06 09:03:59;;;;;;;13.32;11.23;;;18.50;86.80;;;;;;5085788;28;20024;-66
2021/06/06 09:06:43;;;;;;;14.68;11.32;;;18.60;86.50;;;;;;5080346;28;20019;-66
2021/06/06 09:09:11;;;;;;;10.77;9.68;;;18.70;86.00;;;;;;5058749;28;20028;-66
2021/06/06 09:11:37;;;;;;;12.05;10.75;;;18.90;86.10;;;;;;5083278;28;20427;-67
2021/06/06 09:14:03;;;;;;;11.10;9.82;;;19.00;85.00;;;;;;5067416;28;22236;-67
2021/06/06 09:16:52;;;;;;;14.35;9.52;;;19.10;84.90;;;;;;5082107;28;20098;-67
2021/06/06 09:19:17;;;;;;;12.70;8.93;;;19.20;84.90;;;;;;5084977;28;20035;-67
2021/06/06 09:21:54;;;;;;;11.32;9.20;;;19.50;84.50;;;;;;5087690;28;20044;-67
2021/06/06 09:24:35;;;;;;;11.57;9.13;;;19.60;82.70;;;;;;5084010;28;20028;-68
2021/06/06 09:27:21;;;;;;;17.40;9.15;;;19.60;82.50;;;;;;5083087;28;20016;-68
2021/06/06 09:30:06;;;;;;;11.15;8.43;;;19.70;82.60;;;;;;5082425;28;20048;-67
2021/06/06 09:32:33;;;;;;;9.60;7.45;;;20.00;81.90;;;;;;5088389;28;20031;-67
2021/06/06 09:35:23;;;;;;;12.52;8.52;;;20.10;81.10;;;;;;5088389;28;20020;-68
2021/06/06 09:37:55;;;;;;;12.70;9.15;;;20.10;81.20;;;;;;5085695;28;20081;-67
2021/06/06 09:40:35;;;;;;;;;;;20.20;80.50;;;;;;5069610;28;20052;-67
2021/06/06 09:43:01;;;;;;;9.82;7.13;;;20.40;81.00;;;;;;5080675;28;19938;-67
2021/06/06 09:45:33;;;;;;;8.73;6.25;;;20.50;79.30;;;;;;5082745;28;20070;-67
2021/06/06 09:48:01;;;;;;;;;;;20.40;78.70;;;;;;5067588;28;20527;-67
2021/06/06 09:50:40;;;;;;;8.98;6.47;;;20.30;79.00;;;;;;5081488;28;19939;-67
2021/06/06 09:53:14;;;;;;;7.57;6.75;;;20.20;78.90;;;;;;5076899;28;20043;-67
2021/06/06 09:55:40;;;;;;;9.40;6.40;;;20.10;79.30;;;;;;5078670;28;20054;-67
2021/06/06 09:58:23;;;;;;;8.70;6.07;;;20.10;80.10;;;;;;5062023;28;20535;-67
2021/06/06 10:00:52;;;;;;;7.78;5.72;;;20.20;79.80;;;;;;5082511;28;20032;-67
2021/06/06 10:03:31;;;;;;;5.90;5.25;;;20.50;78.40;;;;;;5084012;28;20043;-67
2021/06/06 10:06:30;;;;;;;10.38;6.25;;;20.70;77.70;;;;;;5082897;28;20021;-67
2021/06/06 10:09:27;;;;;;;13.35;6.95;;;20.90;77.30;;;;;;5027832;28;20034;-67
2021/06/06 10:11:57;;;;;;;8.43;4.90;;;21.20;77.00;;;;;;5079954;28;20557;-67
2021/06/06 10:14:29;;;;;;;10.98;6.35;;;21.40;75.90;;;;;;5090253;28;20039;-67
2021/06/06 10:16:57;;;;;;;;;;;21.50;75.50;;;;;;5084985;28;20384;-67
2021/06/06 10:19:26;;;;;;;12.73;4.90;;;21.50;75.00;;;;;;5067329;28;20001;-67
2021/06/06 10:21:54;;;;;;;7.72;4.47;;;21.40;74.20;;;;;;5083212;28;20052;-67
2021/06/06 10:24:35;;;;;;;4.75;3.58;;;21.40;74.30;;;;;;5067787;28;20036;-67
2021/06/06 10:27:12;;;;;;;5.03;3.72;;;21.30;73.70;;;;;;5086258;28;20055;-67
2021/06/06 10:29:47;;;;;;;4.05;2.90;;;21.40;74.20;;;;;;5080359;28;20217;-67
2021/06/06 10:32:26;;;;;;;5.97;4.20;;;21.50;73.80;;;;;;5071022;28;20427;-67
2021/06/06 10:35:12;;;;;;;4.82;3.42;;;21.70;72.40;;;;;;5062731;28;20062;-66
2021/06/06 10:37:38;;;;;;;4.60;4.13;;;21.90;71.80;;;;;;5089338;28;20070;-67
2021/06/06 10:40:09;;;;;;;6.85;3.80;;;21.90;71.10;;;;;;5089080;28;20489;-68
2021/06/06 10:42:44;;;;;;;4.55;3.40;;;21.80;71.00;;;;;;5086225;28;20016;-68
2021/06/06 10:45:24;;;;;;;5.38;3.15;;;21.90;71.00;;;;;;5071330;28;20032;-67
2021/06/06 10:47:57;;;;;;;4.88;4.38;;;22.00;71.00;;;;;;5081423;28;20021;-66
2021/06/06 10:50:22;;;;;;;3.88;3.22;;;22.10;70.10;;;;;;5084564;28;20040;-68
2021/06/06 10:52:50;;;;;;;6.47;3.60;;;21.90;70.30;;;;;;5063311;28;20051;-67
2021/06/06 10:55:33;;;;;;;5.03;3.38;;;21.90;69.20;;;;;;5078423;28;20103;-67
2021/06/06 10:58:37;;;;;;;4.07;3.60;;;21.90;69.40;;;;;;5065486;28;20490;-65
2021/06/06 11:01:18;;;;;;;7.50;3.92;;;22.10;69.60;;;;;;5034208;28;20438;-66
2021/06/06 11:03:46;;;;;;;5.32;3.47;;;22.10;69.40;;;;;;5086800;28;20093;-66
2021/06/06 11:06:28;;;;;;;4.65;3.30;;;22.10;69.60;;;;;;5086945;28;20504;-66
2021/06/06 11:08:54;;;;;;;5.00;3.53;;;22.20;69.80;;;;;;5085678;28;20436;-66
2021/06/06 11:11:29;;;;;;;4.45;3.03;;;22.30;69.10;;;;;;5082303;28;20075;-66
2021/06/06 11:13:57;;;;;;;4.53;3.53;;;22.40;69.00;;;;;;5085804;28;20094;-66
2021/06/06 11:16:37;;;;;;;4.13;3.38;;;22.40;68.30;;;;;;5083507;28;20053;-66
2021/06/06 11:19:08;;;;;;;5.15;3.72;;;22.30;68.60;;;;;;5085324;28;20020;-66
2021/06/06 11:21:50;;;;;;;4.15;2.75;;;22.20;69.00;;;;;;5085535;28;20054;-66
2021/06/06 11:24:45;;;;;;;6.35;3.75;;;22.30;69.90;;;;;;5085472;28;20028;-66
2021/06/06 11:27:11;;;;;;;5.53;2.92;;;22.50;69.20;;;;;;5085577;28;20016;-66
2021/06/06 11:29:53;;;;;;;5.25;3.08;;;22.60;68.20;;;;;;5087199;28;20039;-66
2021/06/06 11:32:40;;;;;;;6.03;3.35;;;22.60;67.50;;;;;;5072454;28;20036;-66
2021/06/06 11:35:23;;;;;;;5.40;3.45;;;22.50;67.40;;;;;;5087203;28;20458;-66
2021/06/06 11:37:54;;;;;;;4.53;3.20;;;22.50;67.20;;;;;;5066543;28;20089;-66
2021/06/06 11:40:31;;;;;;;4.55;2.83;;;22.40;67.00;;;;;;5086190;28;20084;-66
2021/06/06 11:43:01;;;;;;;4.18;3.08;;;22.40;68.00;;;;;;5085924;28;20023;-67
2021/06/06 11:45:40;;;;;;;5.22;3.60;;;22.30;67.80;;;;;;5086787;28;20477;-66
2021/06/06 11:48:13;;;;;;;3.47;3.17;;;22.10;68.20;;;;;;5088172;28;20020;-67
2021/06/06 11:50:49;;;;;;;6.30;3.45;;;21.90;68.60;;;;;;5078698;28;20099;-67
2021/06/06 11:53:37;;;;;;;6.03;3.72;;;21.90;68.60;;;;;;5082859;28;20043;-67
2021/06/06 11:56:14;;;;;;;4.93;3.05;;;21.90;68.50;;;;;;5067122;28;20032;-67
2021/06/06 11:58:53;;;;;;;4.70;2.92;;;21.90;68.00;;;;;;5086665;28;20024;-67
2021/06/06 12:01:22;;;;;;;6.10;3.20;;;21.90;68.30;;;;;;5088374;28;20028;-66
2021/06/06 12:03:50;;;;;;;3.85;2.92;;;22.00;68.30;;;;;;5081968;28;20035;-67
2021/06/06 12:06:25;;;;;;;4.68;3.20;;;22.20;68.70;;;;;;5087186;28;20081;-66
2021/06/06 12:08:58;;;;;;;3.92;2.97;;;22.20;67.70;;;;;;5089527;28;20359;-66
2021/06/06 12:11:29;;;;;;;4.43;2.47;;;22.20;67.20;;;;;;5084939;28;20032;-66
2021/06/06 12:14:13;;;;;;;4.25;2.63;;;22.20;67.30;;;;;;5085658;28;20102;-66
2021/06/06 12:16:48;;;;;;;3.40;2.30;;;22.30;67.70;;;;;;5084074;28;20028;-67
2021/06/06 12:19:17;;;;;;;7.65;2.60;;;22.50;67.40;;;;;;5074002;28;20712;-67
2021/06/06 12:21:45;;;;;;;6.30;2.22;;;22.40;66.50;;;;;;5069194;28;20097;-67
2021/06/06 12:24:27;;;;;;;4.85;2.20;;;22.40;67.20;;;;;;5070297;28;20509;-67
2021/06/06 12:27:03;;;;;;;3.40;2.20;;;22.70;66.20;;;;;;5079249;28;20020;-68
2021/06/06 12:29:39;;;;;;;3.40;2.22;;;23.00;66.10;;;;;;5081071;28;20158;-68
2021/06/06 12:32:08;;;;;;;3.15;1.92;;;23.20;64.60;;;;;;5071495;28;20111;-67
2021/06/06 12:34:35;;;;;;;3.85;2.00;;;23.10;64.40;;;;;;5071985;28;20081;-67
2021/06/06 12:37:10;;;;;;;3.97;2.50;;;23.00;64.30;;;;;;5071176;28;20477;-67
2021/06/06 12:39:41;;;;;;;3.50;2.30;;;22.90;65.00;;;;;;5074285;28;20103;-68
2021/06/06 12:42:08;;;;;;;5.25;2.35;;;22.90;65.20;;;;;;5072578;28;20024;-68
2021/06/06 12:44:39;;;;;;;3.83;1.95;;;22.90;64.90;;;;;;5073661;28;20153;-68
2021/06/06 12:47:27;;;;;;;2.47;1.65;;;22.90;64.00;;;;;;5077916;28;20024;-67
2021/06/06 12:50:03;;;;;;;3.60;2.25;;;22.80;64.20;;;;;;5073689;28;20085;-67
2021/06/06 12:52:36;;;;;;;3.60;2.03;;;22.70;63.90;;;;;;5052930;28;20528;-67